KAVX/AVX METAR and TAF weather

Enter ICAO airport designator
Station Type Date Time Source
KAVX METAR 2019/02/23 22:51 UTC NOAA

KAVX 232251Z AUTO 29009KT 10SM FEW021 SCT032 11/04 A3027 RMK AO2 SLP255 T01060039


Station Type Date Time Source
KAVX Decoded METAR 2019/02/23 22:51 UTC NOAA

AVALON CATALINA AIRPORT, CA, United States (KAVX) 33-24N 118-25W 482M
Feb 23, 2019 - 05:51 PM EST / 2019.02.23 2251 UTC
Wind: from the WNW (290 degrees) at 10 MPH (9 KT):0
Visibility: 10 mile(s):0
Sky conditions: partly cloudy
Temperature: 51.1 F (10.6 C)
Dew Point: 39.0 F (3.9 C)
Relative Humidity: 63%
Pressure (altimeter): 30.27 in. Hg (1025 hPa)
ob: KAVX 232251Z AUTO 29009KT 10SM FEW021 SCT032 11/04 A3027 RMK AO2 SLP255 T01060039
cycle: 23

Station Type Date Time Source
KAVX TAF UTC NOAA

Error!


Example: see airport list